Time;durP1;ratioP1;P1;durP2;ratioP2;P2;SDS_P1;SDS_P2;PMS_P1;PMS_P2;Temp;Humidity;BMP_temperature;BMP_pressure;BME280_temperature;BME280_humidity;BME280_pressure;Samples;Min_cycle;Max_cycle;Signal;HPM_P1;HPM_P2
2022/09/18 00:01:42;;;;;;;1.80;1.70;;;;;;;6.91;85.70;95998.31;4988774;28;20027;-58
2022/09/18 00:04:12;;;;;;;3.20;1.65;;;;;;;6.88;86.30;95992.34;4987106;28;20101;-55
2022/09/18 00:06:39;;;;;;;1.90;1.80;;;;;;;6.87;87.57;95992.47;4988830;28;20034;-56
2022/09/18 00:09:09;;;;;;;2.45;1.73;;;;;;;6.70;88.92;95986.66;4988816;28;20026;-58
2022/09/18 00:11:40;;;;;;;1.80;1.70;;;;;;;6.63;88.96;95992.44;4989819;28;20030;-58
2022/09/18 00:14:08;;;;;;;4.63;1.80;;;;;;;6.64;89.61;95994.13;4988326;28;20050;-57
2022/09/18 00:16:33;;;;;;;2.95;1.60;;;;;;;6.60;88.45;95993.50;4987989;28;20022;-57
2022/09/18 00:18:59;;;;;;;2.08;1.50;;;;;;;6.51;89.46;95994.97;4987299;28;20077;-57
2022/09/18 00:21:25;;;;;;;1.60;1.60;;;;;;;6.48;89.40;95992.59;4986811;28;20038;-57
2022/09/18 00:23:54;;;;;;;1.80;1.70;;;;;;;6.49;89.13;95994.25;4985681;28;20109;-56
2022/09/18 00:26:19;;;;;;;1.98;1.50;;;;;;;6.58;88.48;95990.16;4988645;28;20393;-57
2022/09/18 00:28:45;;;;;;;2.67;1.70;;;;;;;6.64;87.64;95994.13;4986916;28;20080;-56
2022/09/18 00:31:14;;;;;;;4.03;2.05;;;;;;;6.65;87.06;95987.94;4988514;28;20054;-56
2022/09/18 00:33:40;;;;;;;1.70;1.60;;;;;;;6.67;87.19;95983.44;4987727;28;20022;-57
2022/09/18 00:36:09;;;;;;;2.25;1.60;;;;;;;6.67;87.00;95980.81;4987612;28;20077;-56
2022/09/18 00:38:34;;;;;;;2.28;2.00;;;;;;;6.68;86.73;95980.72;4987799;28;20393;-57
2022/09/18 00:41:01;;;;;;;2.08;1.80;;;;;;;6.67;86.32;95986.91;4987732;28;20022;-56
2022/09/18 00:43:29;;;;;;;5.15;1.60;;;;;;;6.69;86.16;95985.00;4988114;28;20453;-56
2022/09/18 00:46:20;;;;;;;2.42;1.80;;;;;;;6.58;87.39;95987.53;4987696;28;20022;-57
2022/09/18 00:49:13;;;;;;;3.53;1.50;;;;;;;6.54;87.25;95991.31;4986138;28;20030;-57
2022/09/18 00:51:40;;;;;;;1.98;1.48;;;;;;;6.39;89.03;95986.22;4985809;28;20034;-58
2022/09/18 00:54:26;;;;;;;3.33;1.98;;;;;;;6.22;90.31;95976.16;4988112;28;20031;-57
2022/09/18 00:56:55;;;;;;;3.50;1.63;;;;;;;6.27;89.45;95987.94;4987113;28;20034;-57
2022/09/18 00:59:25;;;;;;;2.05;1.60;;;;;;;6.30;88.91;95985.13;4982483;28;20022;-56
2022/09/18 01:01:51;;;;;;;1.70;1.60;;;;;;;6.35;88.51;95986.56;4984029;28;20165;-58
2022/09/18 01:04:17;;;;;;;2.72;1.75;;;;;;;6.38;87.94;95984.56;4989210;28;20445;-57
2022/09/18 01:06:51;;;;;;;1.80;1.70;;;;;;;6.40;88.20;95994.94;4990329;28;20046;-58
2022/09/18 01:09:44;;;;;;;2.00;1.70;;;;;;;6.34;90.54;95995.38;4990971;28;20398;-57
2022/09/18 01:12:15;;;;;;;2.85;1.90;;;;;;;6.25;91.50;95994.22;4991049;28;20482;-58
2022/09/18 01:15:19;;;;;;;2.25;1.40;;;;;;;6.13;90.24;95993.31;4990213;28;20022;-58
2022/09/18 01:17:50;;;;;;;3.38;1.60;;;;;;;6.15;91.36;96001.88;4950803;28;20046;-55
2022/09/18 01:20:36;;;;;;;3.17;1.67;;;;;;;6.04;91.69;96001.78;4990597;28;20034;-57
2022/09/18 01:23:10;;;;;;;1.58;1.58;;;;;;;5.98;91.53;96006.47;4988162;28;20034;-57
2022/09/18 01:25:54;;;;;;;3.30;1.80;;;;;;;6.01;90.79;96006.28;4989805;28;20026;-57
2022/09/18 01:28:34;;;;;;;3.35;2.28;;;;;;;6.07;91.48;96001.56;4991174;28;20018;-57
2022/09/18 01:31:05;;;;;;;2.88;1.40;;;;;;;6.14;91.12;96005.44;4991186;28;20590;-55
2022/09/18 01:33:40;;;;;;;1.83;1.50;;;;;;;6.04;91.22;96001.78;4990676;28;20033;-56
2022/09/18 01:36:11;;;;;;;2.35;1.70;;;;;;;5.93;92.29;96008.56;4991944;28;20108;-56
2022/09/18 01:38:50;;;;;;;1.85;1.50;;;;;;;5.97;92.29;96011.81;4982646;28;20035;-58
2022/09/18 01:41:27;;;;;;;3.30;1.83;;;;;;;5.92;93.13;96006.91;4988676;28;20036;-56
2022/09/18 01:44:04;;;;;;;2.65;1.77;;;;;;;5.91;91.99;96015.69;4986302;28;20074;-57
2022/09/18 01:46:30;;;;;;;1.80;1.70;;;;;;;5.83;93.46;96010.97;4988845;28;20050;-57
2022/09/18 01:49:03;;;;;;;2.13;1.85;;;;;;;5.74;94.25;96009.81;4989970;28;20018;-57
2022/09/18 01:51:35;;;;;;;1.75;1.48;;;;;;;5.80;92.76;96007.72;4991982;28;20045;-56
2022/09/18 01:54:11;;;;;;;2.10;1.80;;;;;;;5.86;92.31;96008.13;4989563;28;20038;-56
2022/09/18 01:56:50;;;;;;;2.03;1.75;;;;;;;5.87;92.07;96009.00;4987545;28;20023;-57
2022/09/18 01:59:23;;;;;;;4.00;1.80;;;;;;;5.80;93.54;96007.72;4990782;28;20026;-58
2022/09/18 02:01:51;;;;;;;2.05;1.83;;;;;;;5.82;92.75;96011.06;4986445;28;20034;-57
2022/09/18 02:04:24;;;;;;;1.75;1.65;;;;;;;5.86;92.56;96013.38;4986909;28;20026;-57
2022/09/18 02:07:02;;;;;;;1.83;1.73;;;;;;;5.85;93.72;96021.31;4985972;28;20057;-57
2022/09/18 02:09:29;;;;;;;1.85;1.58;;;;;;;5.83;93.23;96020.56;4985958;28;20037;-55
2022/09/18 02:11:58;;;;;;;1.80;1.70;;;;;;;5.74;95.58;96022.88;4990951;28;20097;-56
2022/09/18 02:14:45;;;;;;;1.75;1.65;;;;;;;5.71;95.43;96025.69;4989838;28;20014;-57
2022/09/18 02:17:25;;;;;;;2.35;1.60;;;;;;;5.62;95.19;96018.47;4988948;28;20058;-57
2022/09/18 02:19:56;;;;;;;1.92;1.55;;;;;;;5.63;94.02;96017.53;4987089;28;20039;-58
2022/09/18 02:22:23;;;;;;;2.55;1.80;;;;;;;5.62;95.25;96026.31;4987627;28;20420;-58
2022/09/18 02:24:53;;;;;;;1.60;1.50;;;;;;;5.67;94.15;96026.84;4988866;28;20030;-57
2022/09/18 02:27:24;;;;;;;2.08;1.77;;;;;;;5.68;94.43;96025.91;4989130;28;20536;-57
2022/09/18 02:29:50;;;;;;;2.08;1.80;;;;;;;5.65;94.18;96028.75;4986172;28;20094;-56
2022/09/18 02:32:15;;;;;;;3.60;1.70;;;;;;;5.65;94.22;96018.28;4991093;28;20105;-56
2022/09/18 02:34:41;;;;;;;3.78;1.75;;;;;;;5.64;94.20;96014.00;4991007;28;20145;-56
2022/09/18 02:37:52;;;;;;;1.67;1.60;;;;;;;5.66;93.88;96006.91;4987906;28;20026;-56
2022/09/18 02:41:02;;;;;;;2.15;1.95;;;;;;;5.66;93.68;96009.50;4988714;28;20474;-57
2022/09/18 02:44:06;;;;;;;3.00;2.05;;;;;;;5.66;94.07;95995.59;4987453;28;20560;-56
2022/09/18 02:47:19;;;;;;;2.58;1.80;;;;;;;5.64;94.28;95998.34;4911148;29;20029;-57
2022/09/18 02:49:54;;;;;;;2.53;1.70;;;;;;;5.60;94.65;95991.63;4904623;29;20511;-57
2022/09/18 02:52:51;;;;;;;1.85;1.70;;;;;;;5.55;96.49;95991.09;4979083;28;20046;-57
2022/09/18 02:55:28;;;;;;;2.50;1.80;;;;;;;5.50;96.85;95983.56;4988534;28;20034;-57
2022/09/18 02:58:19;;;;;;;2.70;1.80;;;;;;;5.46;95.70;95984.72;4964946;28;20022;-57
2022/09/18 03:00:47;;;;;;;1.67;1.58;;;;;;;5.43;96.47;95982.31;4987730;28;20030;-57
2022/09/18 03:03:14;;;;;;;2.15;1.98;;;;;;;5.47;95.85;95975.94;4990472;28;20038;-56
2022/09/18 03:05:40;;;;;;;2.80;1.77;;;;;;;5.52;95.79;95983.47;4988472;28;20473;-56
2022/09/18 03:08:05;;;;;;;1.75;1.65;;;;;;;5.48;96.84;95982.84;4988527;28;20031;-56
2022/09/18 03:10:31;;;;;;;2.10;2.00;;;;;;;5.42;96.23;95975.44;4990880;28;20114;-57
2022/09/18 03:12:56;;;;;;;2.17;2.05;;;;;;;5.40;96.28;95982.53;4989697;28;20037;-57
2022/09/18 03:15:22;;;;;;;1.98;1.88;;;;;;;5.40;96.25;95978.13;4990789;28;20049;-57
2022/09/18 03:17:47;;;;;;;2.08;1.70;;;;;;;5.38;96.72;95977.41;4988379;28;20186;-56
2022/09/18 03:20:13;;;;;;;3.35;3.15;;;;;;;5.42;96.22;95980.66;4986796;28;20383;-56
2022/09/18 03:22:38;;;;;;;7.22;3.35;;;;;;;5.43;96.16;95980.56;4988254;28;20222;-57
2022/09/18 03:25:04;;;;;;;1.98;1.88;;;;;;;5.37;98.28;95980.13;4988410;28;20027;-57
2022/09/18 03:27:29;;;;;;;1.65;1.55;;;;;;;5.31;98.16;95978.75;4987468;28;20022;-57
2022/09/18 03:29:55;;;;;;;1.90;1.80;;;;;;;5.29;99.40;95978.84;4986466;28;20027;-57
2022/09/18 03:32:20;;;;;;;1.60;1.50;;;;;;;5.30;98.12;95985.75;4990807;28;20482;-56
2022/09/18 03:34:45;;;;;;;2.80;2.10;;;;;;;5.33;97.94;95986.50;4988404;28;20105;-57
2022/09/18 03:37:11;;;;;;;1.95;1.85;;;;;;;5.33;98.58;95984.72;4988241;28;20045;-57
2022/09/18 03:39:36;;;;;;;2.80;2.00;;;;;;;5.29;98.98;95988.47;4988254;28;20039;-57
2022/09/18 03:42:02;;;;;;;2.25;1.80;;;;;;;5.24;98.77;95996.59;4990099;28;20474;-54
2022/09/18 03:44:28;;;;;;;1.70;1.60;;;;;;;5.24;98.34;95991.38;4986722;28;20037;-56
2022/09/18 03:46:53;;;;;;;3.08;1.77;;;;;;;5.29;98.51;95998.91;4988104;28;20025;-57
2022/09/18 03:49:19;;;;;;;2.55;1.77;;;;;;;5.23;98.72;95991.50;4989375;28;20057;-57
2022/09/18 03:51:44;;;;;;;2.78;2.55;;;;;;;5.15;98.39;96000.66;4988853;28;20437;-57
2022/09/18 03:54:09;;;;;;;2.65;2.03;;;;;;;5.12;98.07;95993.03;4981582;28;20041;-57
2022/09/18 03:56:37;;;;;;;1.95;1.85;;;;;;;5.13;97.92;96002.53;4989956;28;20105;-56
2022/09/18 03:59:02;;;;;;;2.08;1.60;;;;;;;5.05;99.07;95994.38;4987923;28;20041;-57
2022/09/18 04:01:28;;;;;;;2.95;1.80;;;;;;;5.04;98.90;95995.31;4988150;28;20099;-56
2022/09/18 04:03:53;;;;;;;6.28;2.13;;;;;;;5.05;98.70;95991.75;4988527;28;20411;-56
2022/09/18 04:06:18;;;;;;;1.65;1.55;;;;;;;5.06;98.38;96000.41;4984577;28;20042;-57
2022/09/18 04:08:44;;;;;;;3.50;1.90;;;;;;;5.07;98.40;95995.09;4987634;28;20684;-57
2022/09/18 04:11:09;;;;;;;2.10;1.88;;;;;;;5.04;98.97;95997.06;4984765;28;20088;-56
2022/09/18 04:13:35;;;;;;;2.90;1.90;;;;;;;4.97;100.00;96000.09;4988299;28;20120;-57
2022/09/18 04:16:00;;;;;;;1.90;1.67;;;;;;;4.97;100.00;95999.22;4991109;28;20474;-56
2022/09/18 04:18:26;;;;;;;1.80;1.70;;;;;;;4.96;100.00;96008.00;4985639;28;20037;-58
2022/09/18 04:20:51;;;;;;;2.85;1.60;;;;;;;4.99;98.76;96011.25;4985250;28;20125;-57
2022/09/18 04:23:17;;;;;;;2.67;1.90;;;;;;;4.98;100.00;95995.72;4987957;28;20121;-56
2022/09/18 04:25:43;;;;;;;2.15;1.70;;;;;;;4.93;100.00;96010.81;4986114;28;20023;-57
2022/09/18 04:28:09;;;;;;;1.48;1.48;;;;;;;4.89;100.00;96012.81;4989660;28;20026;-56
2022/09/18 04:30:35;;;;;;;1.95;1.80;;;;;;;4.86;100.00;96006.00;4985622;28;20394;-58
2022/09/18 04:33:01;;;;;;;2.08;1.85;;;;;;;4.92;100.00;96006.53;4989782;28;20105;-57
2022/09/18 04:35:26;;;;;;;2.15;2.00;;;;;;;4.91;99.30;96010.94;4985948;28;20106;-57
2022/09/18 04:37:52;;;;;;;1.55;1.45;;;;;;;4.91;98.95;96012.69;4986567;28;20033;-57
2022/09/18 04:40:17;;;;;;;1.90;1.80;;;;;;;4.88;100.00;96022.38;4993400;28;20658;-57
2022/09/18 04:42:43;;;;;;;2.65;2.20;;;;;;;4.84;99.70;96023.53;4991856;28;20030;-57
2022/09/18 04:45:09;;;;;;;1.58;1.48;;;;;;;4.83;99.82;96019.25;4991247;28;20038;-57
2022/09/18 04:47:35;;;;;;;1.90;1.80;;;;;;;4.84;100.00;96020.06;4991788;28;20031;-57
2022/09/18 04:50:00;;;;;;;4.32;2.17;;;;;;;4.84;100.00;96025.28;4988905;28;20557;-57
2022/09/18 04:52:26;;;;;;;2.00;1.90;;;;;;;4.85;100.00;96033.03;4993555;28;20026;-55
2022/09/18 04:54:51;;;;;;;2.08;1.95;;;;;;;4.91;100.00;96037.00;4990506;28;20530;-57
2022/09/18 04:57:16;;;;;;;2.00;1.65;;;;;;;4.84;100.00;96033.97;4991834;28;20030;-58
2022/09/18 04:59:42;;;;;;;2.08;1.80;;;;;;;4.80;100.00;96040.31;4991514;28;20034;-57
2022/09/18 05:02:07;;;;;;;2.63;2.08;;;;;;;4.75;100.00;96042.34;4991010;28;20030;-56
2022/09/18 05:04:32;;;;;;;2.08;1.90;;;;;;;4.68;100.00;96041.06;4993479;28;20030;-55
2022/09/18 05:06:58;;;;;;;3.30;1.90;;;;;;;4.65;100.00;96038.66;4988159;28;20246;-58
2022/09/18 05:09:23;;;;;;;2.22;2.03;;;;;;;4.64;100.00;96037.00;4989846;28;20164;-57
2022/09/18 05:11:49;;;;;;;1.92;1.80;;;;;;;4.66;100.00;96038.59;4991722;28;20027;-57
2022/09/18 05:14:14;;;;;;;1.90;1.80;;;;;;;4.72;100.00;96045.16;4991025;28;20042;-56
2022/09/18 05:16:39;;;;;;;3.00;1.80;;;;;;;4.73;100.00;96042.47;4989278;28;20486;-57
2022/09/18 05:19:05;;;;;;;1.80;1.80;;;;;;;4.70;100.00;96044.41;4989859;28;20105;-58
2022/09/18 05:21:30;;;;;;;1.85;1.75;;;;;;;4.64;100.00;96042.22;4991311;28;20040;-57
2022/09/18 05:23:56;;;;;;;2.10;1.88;;;;;;;4.62;100.00;96041.47;4973760;28;20032;-51
2022/09/18 05:26:21;;;;;;;2.08;1.98;;;;;;;4.61;100.00;96042.41;4991280;28;20049;-55
2022/09/18 05:28:49;;;;;;;4.45;1.88;;;;;;;4.60;100.00;96046.78;4992832;28;20034;-57
2022/09/18 05:31:16;;;;;;;3.05;1.63;;;;;;;4.65;100.00;96043.88;4990642;28;20564;-57
2022/09/18 05:33:41;;;;;;;4.78;1.98;;;;;;;4.67;100.00;96042.00;4990766;28;20026;-57
2022/09/18 05:36:07;;;;;;;2.20;2.00;;;;;;;4.69;100.00;96042.75;4990389;28;20030;-56
2022/09/18 05:38:32;;;;;;;1.95;1.85;;;;;;;4.72;100.00;96047.75;4989191;28;20508;-57
2022/09/18 05:41:00;;;;;;;2.20;2.10;;;;;;;4.75;100.00;96052.78;4990986;28;20129;-56
2022/09/18 05:43:26;;;;;;;2.05;1.65;;;;;;;4.78;100.00;96052.63;4990332;28;20421;-56
2022/09/18 05:45:51;;;;;;;2.17;1.80;;;;;;;4.80;100.00;96052.50;4992101;28;20022;-55
2022/09/18 05:48:17;;;;;;;1.92;1.83;;;;;;;4.81;100.00;96056.78;4988526;28;20022;-56
2022/09/18 05:50:42;;;;;;;1.95;1.83;;;;;;;4.86;100.00;96055.56;4992592;28;20030;-57
2022/09/18 05:53:16;;;;;;;2.10;2.00;;;;;;;4.88;100.00;96056.31;4987766;28;20021;-57
2022/09/18 05:55:42;;;;;;;2.50;2.30;;;;;;;4.85;100.00;96059.09;4990542;28;20117;-56
2022/09/18 05:58:12;;;;;;;3.03;1.90;;;;;;;4.86;100.00;96067.75;4989317;28;20093;-57
2022/09/18 06:00:38;;;;;;;1.98;1.88;;;;;;;4.78;100.00;96075.25;4989709;28;20062;-56
2022/09/18 06:03:09;;;;;;;4.20;2.13;;;;;;;4.84;100.00;96074.84;4992078;28;20092;-58
2022/09/18 06:05:39;;;;;;;2.25;2.03;;;;;;;4.86;100.00;96073.84;4990543;28;20062;-58
2022/09/18 06:08:09;;;;;;;1.83;1.80;;;;;;;4.86;100.00;96076.44;4990297;28;20137;-58
2022/09/18 06:10:38;;;;;;;2.10;1.90;;;;;;;4.89;100.00;96083.25;4972982;28;20027;-56
2022/09/18 06:13:14;;;;;;;2.15;1.80;;;;;;;4.93;100.00;96078.66;4991178;28;20049;-57
2022/09/18 06:15:42;;;;;;;3.03;1.73;;;;;;;4.93;100.00;96076.03;4988548;28;20520;-57
2022/09/18 06:18:08;;;;;;;2.00;1.90;;;;;;;4.96;100.00;96075.84;4988824;28;20479;-58
2022/09/18 06:20:33;;;;;;;4.00;2.20;;;;;;;4.94;100.00;96067.28;4991868;28;20297;-57
2022/09/18 06:23:00;;;;;;;3.22;2.13;;;;;;;4.90;100.00;96079.69;4987655;28;20318;-58
2022/09/18 06:25:26;;;;;;;2.03;1.85;;;;;;;4.87;100.00;96083.31;4988366;28;20031;-57
2022/09/18 06:27:57;;;;;;;2.20;2.00;;;;;;;4.92;100.00;96080.44;4989050;28;20057;-58
2022/09/18 06:30:24;;;;;;;1.98;1.88;;;;;;;4.94;100.00;96082.94;4987588;28;20077;-56
2022/09/18 06:32:50;;;;;;;3.58;2.47;;;;;;;4.98;100.00;96079.22;4988095;28;20027;-57
2022/09/18 06:35:16;;;;;;;2.10;2.00;;;;;;;5.05;100.00;96082.25;4988704;28;20029;-56
2022/09/18 06:37:41;;;;;;;2.17;2.08;;;;;;;5.13;100.00;96080.81;4989600;28;20018;-56
2022/09/18 06:40:07;;;;;;;2.20;2.10;;;;;;;5.16;100.00;96085.03;4971717;28;20037;-57
2022/09/18 06:42:33;;;;;;;2.10;2.00;;;;;;;5.13;100.00;96082.63;4991895;28;20022;-56
2022/09/18 06:44:58;;;;;;;2.33;2.22;;;;;;;5.14;100.00;96085.09;4990574;28;20481;-57
2022/09/18 06:47:23;;;;;;;2.78;1.90;;;;;;;5.13;100.00;96083.44;4988840;28;20149;-58
2022/09/18 06:49:48;;;;;;;2.10;1.90;;;;;;;5.10;100.00;96088.84;4986658;28;20038;-57
2022/09/18 06:52:14;;;;;;;1.95;1.80;;;;;;;5.12;100.00;96086.97;4989627;28;20038;-58
2022/09/18 06:54:39;;;;;;;2.40;1.75;;;;;;;5.15;100.00;96089.38;4988721;28;20026;-58
2022/09/18 06:57:07;;;;;;;1.77;1.63;;;;;;;5.21;100.00;96080.34;4990328;28;20026;-57
2022/09/18 06:59:33;;;;;;;2.17;1.95;;;;;;;5.26;100.00;96082.66;4989045;28;20053;-57
2022/09/18 07:01:58;;;;;;;2.03;1.90;;;;;;;5.26;100.00;96080.88;4987186;28;20034;-58
2022/09/18 07:04:24;;;;;;;2.25;2.10;;;;;;;5.32;100.00;96082.25;4991046;28;20030;-56
2022/09/18 07:06:49;;;;;;;2.42;2.25;;;;;;;5.54;100.00;96076.47;4987446;28;20089;-55
2022/09/18 07:09:15;;;;;;;2.15;1.88;;;;;;;5.91;100.00;96075.78;4988636;28;20038;-57
2022/09/18 07:11:40;;;;;;;1.73;1.60;;;;;;;6.27;97.41;96079.44;4991351;28;20034;-57
2022/09/18 07:14:09;;;;;;;3.00;2.30;;;;;;;6.62;94.59;96072.72;4987314;28;20050;-57
2022/09/18 07:16:35;;;;;;;1.70;1.55;;;;;;;6.85;90.77;96068.47;4986940;28;20022;-56
2022/09/18 07:19:00;;;;;;;1.52;1.50;;;;;;;7.14;90.69;96073.38;4970926;28;20379;-56
2022/09/18 07:21:26;;;;;;;3.80;1.40;;;;;;;7.36;91.15;96074.44;4985060;28;20034;-52
2022/09/18 07:23:51;;;;;;;2.78;1.67;;;;;;;7.56;89.65;96077.38;4988654;28;20445;-57
2022/09/18 07:26:17;;;;;;;3.25;1.58;;;;;;;7.82;89.46;96078.06;4987843;28;20030;-58
2022/09/18 07:28:43;;;;;;;1.70;1.60;;;;;;;7.98;89.86;96067.25;4987791;28;20026;-55
2022/09/18 07:31:09;;;;;;;1.65;1.55;;;;;;;8.16;87.13;96072.84;4982808;28;20035;-56
2022/09/18 07:33:34;;;;;;;2.45;1.67;;;;;;;8.30;86.81;96066.56;4984469;28;20453;-54
2022/09/18 07:36:01;;;;;;;2.08;1.75;;;;;;;8.45;85.05;96064.56;4985732;28;20112;-56
2022/09/18 07:38:27;;;;;;;1.40;1.30;;;;;;;8.43;82.86;96068.22;4986694;28;20030;-55
2022/09/18 07:40:52;;;;;;;2.63;1.30;;;;;;;8.55;82.73;96059.44;4987161;28;20022;-56
2022/09/18 07:43:18;;;;;;;1.77;1.50;;;;;;;8.60;82.93;96064.31;4988934;28;20027;-58
2022/09/18 07:45:43;;;;;;;1.60;1.50;;;;;;;8.67;82.17;96067.31;4987728;28;20026;-57
2022/09/18 07:48:09;;;;;;;3.70;1.40;;;;;;;8.94;79.19;96059.03;4970661;28;20387;-58
2022/09/18 07:50:34;;;;;;;1.75;1.50;;;;;;;8.87;79.94;96056.06;4984743;28;20038;-57
2022/09/18 07:53:02;;;;;;;1.83;1.70;;;;;;;8.97;80.90;96058.78;4984286;28;20022;-56
2022/09/18 07:55:27;;;;;;;3.55;1.50;;;;;;;9.10;79.60;96063.88;4988266;28;20113;-59
2022/09/18 07:57:58;;;;;;;2.08;1.40;;;;;;;9.14;77.02;96065.28;4988496;28;20018;-58
2022/09/18 08:00:24;;;;;;;1.58;1.48;;;;;;;9.38;77.19;96063.44;4983872;28;20022;-58
2022/09/18 08:02:51;;;;;;;2.30;1.58;;;;;;;9.50;75.02;96069.47;4990129;28;20038;-59
2022/09/18 08:05:16;;;;;;;1.65;1.55;;;;;;;9.51;75.15;96066.75;4987978;28;20045;-52
2022/09/18 08:07:41;;;;;;;1.42;1.42;;;;;;;9.60;74.37;96067.75;4988535;28;20494;-57
2022/09/18 08:10:09;;;;;;;1.65;1.55;;;;;;;9.58;73.38;96070.53;4989498;28;20085;-57
2022/09/18 08:12:35;;;;;;;1.45;1.40;;;;;;;9.63;72.30;96071.94;4985695;28;20502;-58
2022/09/18 08:15:00;;;;;;;1.50;1.40;;;;;;;9.65;73.74;96076.13;4987882;28;20107;-55
2022/09/18 08:17:26;;;;;;;1.83;1.73;;;;;;;9.72;73.79;96074.63;4991140;28;20034;-57
2022/09/18 08:19:51;;;;;;;1.45;1.35;;;;;;;9.93;74.05;96075.59;4985646;28;20394;-58
2022/09/18 08:22:16;;;;;;;1.55;1.45;;;;;;;9.97;73.31;96075.22;4987832;28;20084;-58
2022/09/18 08:24:42;;;;;;;1.67;1.58;;;;;;;10.13;73.51;96079.19;4987596;28;20065;-57
2022/09/18 08:27:07;;;;;;;2.63;1.80;;;;;;;10.22;72.48;96075.78;4987610;28;20057;-58
2022/09/18 08:29:33;;;;;;;1.60;1.50;;;;;;;10.39;73.24;96081.41;4987126;28;20044;-58
2022/09/18 08:31:58;;;;;;;1.30;1.30;;;;;;;10.54;72.46;96080.13;4989497;28;20026;-57
2022/09/18 08:34:23;;;;;;;1.77;1.67;;;;;;;10.62;71.18;96081.25;4987860;28;20070;-58
2022/09/18 08:36:49;;;;;;;1.55;1.45;;;;;;;10.74;71.33;96074.94;4986835;28;20524;-58
2022/09/18 08:39:14;;;;;;;1.60;1.50;;;;;;;11.04;69.98;96081.94;4987945;28;20621;-59
2022/09/18 08:41:51;;;;;;;1.52;1.42;;;;;;;11.20;67.19;96079.75;4988136;28;20034;-58
2022/09/18 08:44:23;;;;;;;3.78;1.50;;;;;;;11.14;68.88;96081.94;4985659;28;20031;-59
2022/09/18 08:47:06;;;;;;;1.50;1.40;;;;;;;11.15;67.11;96080.16;4987327;28;20058;-59
2022/09/18 08:49:43;;;;;;;1.10;1.10;;;;;;;11.05;65.33;96082.78;4988003;28;20046;-59
2022/09/18 08:52:13;;;;;;;1.88;1.77;;;;;;;11.08;67.57;96084.31;4989176;28;20026;-58
2022/09/18 08:54:48;;;;;;;1.88;1.50;;;;;;;11.11;67.97;96079.59;4986632;28;20026;-59
2022/09/18 08:57:18;;;;;;;2.67;1.58;;;;;;;11.17;67.37;96086.97;4984821;28;20081;-57
2022/09/18 08:59:50;;;;;;;1.73;1.63;;;;;;;11.24;67.11;96086.44;4988301;28;20466;-58
2022/09/18 09:02:26;;;;;;;1.77;1.65;;;;;;;11.32;65.73;96078.66;4989718;28;20027;-59
2022/09/18 09:04:57;;;;;;;2.90;1.38;;;;;;;11.39;65.79;96084.22;4987502;28;20022;-59
2022/09/18 09:07:34;;;;;;;1.77;1.58;;;;;;;11.35;66.11;96078.38;4983388;28;20042;-59
2022/09/18 09:10:30;;;;;;;1.55;1.45;;;;;;;11.43;63.40;96077.69;4987022;28;20034;-59
2022/09/18 09:13:14;;;;;;;1.38;1.27;;;;;;;11.61;64.82;96083.13;4987380;28;20022;-59
2022/09/18 09:15:52;;;;;;;1.38;1.27;;;;;;;11.67;61.13;96085.22;4987190;28;20062;-59
2022/09/18 09:18:21;;;;;;;1.15;1.15;;;;;;;11.76;60.83;96078.28;4987475;28;20049;-59
2022/09/18 09:20:51;;;;;;;1.67;1.58;;;;;;;11.97;60.98;96083.38;4988383;28;20018;-58
2022/09/18 09:23:48;;;;;;;1.60;1.50;;;;;;;11.96;59.95;96079.06;4989036;28;20113;-58
2022/09/18 09:26:17;;;;;;;1.67;1.58;;;;;;;12.11;61.15;96073.38;4986648;28;20027;-58
2022/09/18 09:28:46;;;;;;;3.25;1.50;;;;;;;11.97;60.92;96077.28;4991758;28;20033;-59
2022/09/18 09:31:13;;;;;;;1.40;1.30;;;;;;;11.97;61.47;96072.81;4986395;28;20158;-59
2022/09/18 09:33:46;;;;;;;4.60;1.50;;;;;;;11.86;61.12;96070.34;4992371;28;20222;-59
2022/09/18 09:36:17;;;;;;;1.63;1.52;;;;;;;11.91;60.83;96073.38;4991899;28;20093;-58
2022/09/18 09:39:01;;;;;;;1.70;1.60;;;;;;;11.95;64.04;96068.69;4988927;28;20045;-58
2022/09/18 09:41:45;;;;;;;1.33;1.30;;;;;;;12.13;61.23;96071.44;4983138;28;20027;-59
2022/09/18 09:44:27;;;;;;;1.50;1.40;;;;;;;12.23;61.62;96064.31;4989315;28;20509;-58
2022/09/18 09:46:52;;;;;;;1.95;1.33;;;;;;;12.25;61.37;96066.81;4991358;28;21357;-59
2022/09/18 09:49:24;;;;;;;1.27;1.17;;;;;;;12.45;58.71;96072.88;4992436;28;20030;-59
2022/09/18 09:52:02;;;;;;;1.48;1.30;;;;;;;12.69;58.22;96069.72;4989455;28;20107;-58
2022/09/18 09:54:27;;;;;;;1.20;1.10;;;;;;;12.69;58.19;96067.09;4983317;28;20092;-59
2022/09/18 09:57:14;;;;;;;1.55;1.45;;;;;;;12.77;55.71;96058.44;4990450;28;20030;-59
2022/09/18 09:59:39;;;;;;;4.40;4.00;;;;;;;12.67;58.31;96062.91;4981164;28;20033;-59
2022/09/18 10:02:28;;;;;;;2.20;1.40;;;;;;;12.86;54.89;96060.19;4986971;28;20026;-59
2022/09/18 10:05:05;;;;;;;2.97;1.90;;;;;;;12.78;56.54;96061.91;4990280;28;20118;-59
2022/09/18 10:07:38;;;;;;;1.85;1.55;;;;;;;13.03;56.27;96060.38;4986470;28;20041;-59
2022/09/18 10:10:27;;;;;;;1.30;1.25;;;;;;;13.02;55.43;96046.31;4990427;28;20030;-60
2022/09/18 10:13:02;;;;;;;1.85;1.75;;;;;;;13.21;56.54;96051.66;4987983;28;20077;-59
2022/09/18 10:15:40;;;;;;;2.20;2.00;;;;;;;13.16;54.56;96047.66;4984096;28;20101;-59
2022/09/18 10:18:23;;;;;;;1.60;1.50;;;;;;;13.25;53.69;96043.25;4989917;28;20023;-59
2022/09/18 10:20:54;;;;;;;5.03;1.40;;;;;;;13.31;53.49;96040.03;4989799;28;20026;-59
2022/09/18 10:23:24;;;;;;;1.30;1.20;;;;;;;13.32;53.18;96048.78;4985833;28;20035;-58
2022/09/18 10:25:56;;;;;;;1.27;1.17;;;;;;;13.39;53.79;96041.91;4991025;28;20112;-59
2022/09/18 10:28:24;;;;;;;1.45;1.40;;;;;;;13.64;53.53;96039.53;4983823;28;20038;-59
2022/09/18 10:30:59;;;;;;;1.90;1.58;;;;;;;13.66;53.08;96042.84;4982341;28;20057;-59
2022/09/18 10:33:45;;;;;;;1.20;1.10;;;;;;;13.73;53.67;96035.94;4986256;28;20597;-57
2022/09/18 10:36:15;;;;;;;2.58;1.13;;;;;;;14.06;53.37;96032.72;4986136;28;20077;-55
2022/09/18 10:38:41;;;;;;;3.60;1.13;;;;;;;14.44;53.18;96043.00;4987888;28;20025;-55
2022/09/18 10:41:22;;;;;;;1.05;1.00;;;;;;;14.56;51.67;96036.47;4989723;28;20030;-55
2022/09/18 10:43:58;;;;;;;1.90;1.17;;;;;;;14.42;51.51;96040.53;4987956;28;20023;-55
2022/09/18 10:46:27;;;;;;;2.50;1.30;;;;;;;14.67;51.48;96035.34;4986884;28;20038;-65
2022/09/18 10:48:53;;;;;;;1.20;1.20;;;;;;;14.93;50.83;96036.31;4988875;28;20023;-59
2022/09/18 10:51:20;;;;;;;1.10;1.10;;;;;;;15.20;48.63;96034.41;4972875;28;20037;-57
2022/09/18 10:54:00;;;;;;;2.03;1.27;;;;;;;15.13;48.08;96027.06;4985315;28;20049;-60
2022/09/18 10:56:26;;;;;;;2.00;1.00;;;;;;;15.12;48.14;96027.25;4987808;28;20019;-59
2022/09/18 10:58:51;;;;;;;1.27;1.23;;;;;;;15.44;49.36;96028.28;4987321;28;20029;-59
2022/09/18 11:01:18;;;;;;;2.15;1.00;;;;;;;15.76;45.58;96026.66;4987988;28;20030;-60
2022/09/18 11:04:05;;;;;;;1.73;1.20;;;;;;;16.05;45.51;96028.00;4989510;28;20402;-61
2022/09/18 11:06:34;;;;;;;1.75;1.33;;;;;;;16.72;44.43;96029.47;4989356;28;20065;-61
2022/09/18 11:09:01;;;;;;;2.13;1.08;;;;;;;16.95;44.03;96019.91;4985869;28;20031;-61
2022/09/18 11:11:32;;;;;;;1.55;1.23;;;;;;;17.01;42.07;96021.91;4985980;28;20057;-60
2022/09/18 11:14:04;;;;;;;1.67;1.30;;;;;;;16.90;42.21;96026.56;4987719;28;20076;-61
2022/09/18 11:16:46;;;;;;;1.50;0.90;;;;;;;16.84;40.87;96027.25;4988137;28;20030;-61
2022/09/18 11:19:21;;;;;;;1.45;1.33;;;;;;;16.86;42.71;96019.13;4985296;28;20026;-60
2022/09/18 11:21:54;;;;;;;1.30;1.20;;;;;;;17.46;41.66;96014.13;4987676;28;20042;-60
2022/09/18 11:24:32;;;;;;;0.85;0.85;;;;;;;18.08;39.85;96011.50;4987835;28;20534;-61
2022/09/18 11:27:00;;;;;;;2.40;0.93;;;;;;;17.82;41.55;96013.53;4986340;28;20034;-58
2022/09/18 11:29:30;;;;;;;1.52;1.13;;;;;;;17.84;41.10;96005.38;4986779;28;20110;-61
2022/09/18 11:32:17;;;;;;;0.82;0.82;;;;;;;18.30;40.00;96005.28;4988369;28;20026;-59
2022/09/18 11:34:48;;;;;;;0.80;0.80;;;;;;;18.43;39.96;96009.13;4988291;28;20370;-58
2022/09/18 11:37:32;;;;;;;1.00;1.00;;;;;;;17.93;39.63;96004.28;4988718;28;20026;-58
2022/09/18 11:40:20;;;;;;;1.00;1.00;;;;;;;17.84;40.48;96003.53;4984498;28;20028;-59
2022/09/18 11:42:49;;;;;;;1.10;1.00;;;;;;;17.82;40.99;96012.72;4987578;28;20026;-58
2022/09/18 11:45:47;;;;;;;1.77;1.25;;;;;;;17.74;40.84;96011.75;4984524;28;20036;-58
2022/09/18 11:48:30;;;;;;;1.67;1.20;;;;;;;17.41;40.37;96009.38;4986307;28;20022;-58
2022/09/18 11:51:01;;;;;;;1.40;1.13;;;;;;;17.43;41.86;96010.00;4986941;28;20117;-57
2022/09/18 11:53:31;;;;;;;1.23;1.10;;;;;;;17.86;41.62;95998.03;4988616;28;20081;-58